Time;durP1;ratioP1;P1;durP2;ratioP2;P2;SDS_P1;SDS_P2;PMS_P1;PMS_P2;Temp;Humidity;BMP_temperature;BMP_pressure;BME280_temperature;BME280_humidity;BME280_pressure;Samples;Min_cycle;Max_cycle;Signal;HPM_P1;HPM_P2
2021/09/10 00:01:50;;;;;;;20.67;13.23;;;19.80;99.90;;;;;;5072873;28;20361;-79
2021/09/10 00:04:16;;;;;;;18.70;12.93;;;19.80;99.90;;;;;;5072342;28;20241;-79
2021/09/10 00:06:44;;;;;;;18.03;13.07;;;19.80;99.90;;;;;;5072926;28;20203;-80
2021/09/10 00:09:12;;;;;;;17.20;12.80;;;19.80;99.90;;;;;;5072987;28;20230;-80
2021/09/10 00:11:39;;;;;;;19.03;12.73;;;19.80;99.90;;;;;;5072661;28;20291;-80
2021/09/10 00:14:06;;;;;;;19.10;12.47;;;19.90;99.90;;;;;;5072866;28;20203;-79
2021/09/10 00:16:33;;;;;;;17.70;12.47;;;19.90;99.90;;;;;;5072378;28;20275;-79
2021/09/10 00:18:59;;;;;;;15.53;12.87;;;19.90;99.90;;;;;;5072493;28;20660;-79
2021/09/10 00:21:26;;;;;;;18.20;12.40;;;19.90;99.90;;;;;;5072103;28;20290;-79
2021/09/10 00:23:53;;;;;;;16.87;11.77;;;19.80;99.90;;;;;;5072505;28;20294;-79
2021/09/10 00:26:21;;;;;;;16.03;12.20;;;19.80;99.90;;;;;;5072193;28;20735;-79
2021/09/10 00:28:48;;;;;;;17.37;12.20;;;19.80;99.90;;;;;;5058619;28;20196;-79
2021/09/10 00:31:15;;;;;;;17.37;12.20;;;19.70;99.90;;;;;;5072227;28;20203;-79
2021/09/10 00:33:42;;;;;;;21.63;12.80;;;19.70;99.90;;;;;;5071963;28;20721;-79
2021/09/10 00:36:09;;;;;;;20.70;12.27;;;19.70;99.90;;;;;;5072082;28;20290;-79
2021/09/10 00:38:36;;;;;;;18.27;10.93;;;19.60;99.90;;;;;;5072143;28;20227;-80
2021/09/10 00:41:03;;;;;;;19.53;11.70;;;19.60;99.90;;;;;;5074827;28;20309;-80
2021/09/10 00:43:31;;;;;;;17.77;12.03;;;19.60;99.90;;;;;;5075962;28;20687;-79
2021/09/10 00:45:59;;;;;;;16.07;11.23;;;19.60;99.90;;;;;;5076267;28;20203;-79
2021/09/10 00:48:27;;;;;;;16.67;11.57;;;19.60;99.90;;;;;;5076031;28;20206;-79
2021/09/10 00:50:55;;;;;;;18.20;11.13;;;19.60;99.90;;;;;;5075922;28;20331;-79
2021/09/10 00:53:23;;;;;;;17.47;11.07;;;19.50;99.90;;;;;;5076206;28;20214;-79
2021/09/10 00:55:50;;;;;;;17.67;10.67;;;19.50;99.90;;;;;;5075685;28;20641;-79
2021/09/10 00:58:17;;;;;;;16.60;10.77;;;19.60;99.90;;;;;;5075943;28;20254;-79
2021/09/10 01:00:45;;;;;;;18.73;11.07;;;19.50;99.90;;;;;;5075807;28;20211;-79
2021/09/10 01:03:13;;;;;;;18.07;11.40;;;19.60;99.90;;;;;;5075749;28;20558;-79
2021/09/10 01:05:42;;;;;;;17.70;10.97;;;19.60;99.90;;;;;;5075296;28;20207;-79
2021/09/10 01:08:11;;;;;;;17.20;11.07;;;19.50;99.90;;;;;;5075501;28;20199;-79
2021/09/10 01:10:39;;;;;;;14.97;9.67;;;19.50;99.90;;;;;;5075535;28;20207;-79
2021/09/10 01:13:06;;;;;;;16.10;10.40;;;19.60;99.90;;;;;;5075851;28;20253;-79
2021/09/10 01:15:33;;;;;;;15.60;10.50;;;19.60;99.90;;;;;;5075756;28;20199;-79
2021/09/10 01:18:01;;;;;;;19.10;10.20;;;19.70;99.90;;;;;;5075307;28;20315;-79
2021/09/10 01:20:28;;;;;;;17.87;10.43;;;19.70;99.90;;;;;;5075558;28;20231;-79
2021/09/10 01:22:55;;;;;;;16.70;11.17;;;19.70;99.90;;;;;;5075426;28;20290;-79
2021/09/10 01:25:23;;;;;;;15.77;10.77;;;19.70;99.90;;;;;;5075142;28;20199;-79
2021/09/10 01:27:54;;;;;;;20.10;10.50;;;19.70;99.90;;;;;;5075652;28;20227;-79
2021/09/10 01:30:22;;;;;;;15.83;10.60;;;19.70;99.90;;;;;;5075329;28;20282;-79
2021/09/10 01:32:50;;;;;;;19.73;11.03;;;19.60;99.90;;;;;;5075086;28;20724;-79
2021/09/10 01:35:17;;;;;;;16.43;11.07;;;19.70;99.90;;;;;;5074922;28;20303;-79
2021/09/10 01:37:45;;;;;;;15.17;9.97;;;19.70;99.90;;;;;;5076603;28;20278;-79
2021/09/10 01:40:13;;;;;;;17.67;10.40;;;19.70;99.90;;;;;;5078062;28;20330;-79
2021/09/10 01:42:41;;;;;;;13.97;10.07;;;19.60;99.90;;;;;;5075128;28;20358;-79
2021/09/10 01:45:11;;;;;;;17.70;10.77;;;19.60;99.90;;;;;;5074596;28;20239;-80
2021/09/10 01:47:38;;;;;;;15.27;9.77;;;19.50;99.90;;;;;;5074840;28;20208;-79
2021/09/10 01:50:07;;;;;;;13.63;9.37;;;19.50;99.90;;;;;;5074839;28;20303;-79
2021/09/10 01:52:34;;;;;;;17.27;9.73;;;19.50;99.90;;;;;;5073834;28;20204;-80
2021/09/10 01:55:01;;;;;;;15.60;9.07;;;19.60;99.90;;;;;;5074732;28;20689;-80
2021/09/10 01:57:28;;;;;;;15.33;9.73;;;19.50;99.90;;;;;;5074821;28;20286;-79
2021/09/10 01:59:56;;;;;;;15.13;9.30;;;19.50;99.90;;;;;;5074725;28;20314;-80
2021/09/10 02:02:23;;;;;;;16.67;9.90;;;19.40;99.90;;;;;;5074966;28;20295;-80
2021/09/10 02:04:50;;;;;;;16.77;9.57;;;19.40;99.90;;;;;;5074319;28;20291;-80
2021/09/10 02:07:17;;;;;;;18.27;10.33;;;19.40;99.90;;;;;;5074715;28;20203;-79
2021/09/10 02:09:44;;;;;;;15.67;9.53;;;19.40;99.90;;;;;;5074316;28;20195;-79
2021/09/10 02:12:11;;;;;;;13.70;9.53;;;19.50;99.90;;;;;;5074557;28;20235;-79
2021/09/10 02:14:38;;;;;;;12.53;9.30;;;19.50;99.90;;;;;;5074348;28;20315;-80
2021/09/10 02:17:06;;;;;;;13.00;9.20;;;19.50;99.90;;;;;;5074405;28;20207;-80
2021/09/10 02:19:33;;;;;;;13.07;9.23;;;19.50;99.90;;;;;;5074368;28;20302;-79
2021/09/10 02:22:01;;;;;;;15.60;9.53;;;19.40;99.90;;;;;;5074459;28;20238;-79
2021/09/10 02:24:27;;;;;;;13.30;9.20;;;19.30;99.90;;;;;;5074037;28;20572;-79
2021/09/10 02:26:55;;;;;;;13.80;9.53;;;19.30;99.90;;;;;;5074400;28;20290;-79
2021/09/10 02:29:22;;;;;;;13.07;9.73;;;19.30;99.90;;;;;;5074248;28;20295;-79
2021/09/10 02:31:49;;;;;;;18.20;10.23;;;19.20;99.90;;;;;;5073769;28;20196;-79
2021/09/10 02:34:17;;;;;;;15.47;9.13;;;19.20;99.90;;;;;;5074217;28;20286;-79
2021/09/10 02:36:44;;;;;;;16.83;9.80;;;19.20;99.90;;;;;;5074148;28;20199;-79
2021/09/10 02:39:12;;;;;;;14.80;9.47;;;19.30;99.90;;;;;;5073666;28;20240;-79
2021/09/10 02:41:40;;;;;;;12.23;8.87;;;19.30;99.90;;;;;;5074277;28;20214;-79
2021/09/10 02:44:08;;;;;;;12.57;9.60;;;19.30;99.90;;;;;;5074055;28;20207;-79
2021/09/10 02:46:35;;;;;;;16.27;9.60;;;19.30;99.90;;;;;;5073564;28;20672;-79
2021/09/10 02:49:02;;;;;;;14.70;9.37;;;19.40;99.90;;;;;;5073886;28;20207;-79
2021/09/10 02:51:30;;;;;;;15.13;9.87;;;19.30;99.90;;;;;;5073625;28;20624;-79
2021/09/10 02:53:57;;;;;;;18.77;10.10;;;19.40;99.90;;;;;;5062282;28;20286;-79
2021/09/10 02:56:24;;;;;;;13.20;9.13;;;19.40;99.90;;;;;;5053837;28;20200;-79
2021/09/10 02:58:50;;;;;;;16.37;9.80;;;19.40;99.90;;;;;;5057288;28;20216;-79
2021/09/10 03:01:17;;;;;;;16.50;9.67;;;19.40;99.90;;;;;;5070073;28;20207;-79
2021/09/10 03:03:44;;;;;;;12.87;8.97;;;19.30;99.90;;;;;;5073627;28;20238;-79
2021/09/10 03:06:11;;;;;;;15.80;8.80;;;19.30;99.90;;;;;;5073799;28;20242;-79
2021/09/10 03:08:41;;;;;;;16.13;9.40;;;19.40;99.90;;;;;;5073739;28;20306;-79
2021/09/10 03:11:09;;;;;;;15.17;9.23;;;19.50;99.90;;;;;;5073398;28;20544;-79
2021/09/10 03:13:36;;;;;;;15.37;9.43;;;19.50;99.90;;;;;;5073774;28;20207;-79
2021/09/10 03:16:02;;;;;;;17.47;9.67;;;19.50;99.90;;;;;;5073126;28;20257;-79
2021/09/10 03:18:29;;;;;;;15.07;9.20;;;19.50;99.90;;;;;;5073124;28;20634;-79
2021/09/10 03:20:56;;;;;;;20.13;9.47;;;19.50;99.90;;;;;;5072972;28;20299;-79
2021/09/10 03:23:23;;;;;;;20.53;9.60;;;19.40;99.90;;;;;;5073615;28;20291;-79
2021/09/10 03:25:51;;;;;;;18.83;9.37;;;19.40;99.90;;;;;;5073077;28;20294;-78
2021/09/10 03:28:18;;;;;;;17.10;9.83;;;19.40;99.90;;;;;;5073119;28;20637;-79
2021/09/10 03:30:45;;;;;;;19.70;9.30;;;19.50;99.90;;;;;;5073070;28;20290;-79
2021/09/10 03:33:12;;;;;;;16.13;9.37;;;19.40;99.90;;;;;;5072908;28;20215;-80
2021/09/10 03:35:39;;;;;;;15.37;8.97;;;19.40;99.90;;;;;;5073073;28;20203;-79
2021/09/10 03:38:05;;;;;;;16.90;10.40;;;19.30;99.90;;;;;;5073212;28;20223;-79
2021/09/10 03:40:35;;;;;;;19.03;9.40;;;19.20;99.90;;;;;;5072722;28;20223;-79
2021/09/10 03:43:04;;;;;;;17.37;9.83;;;19.20;99.90;;;;;;5073016;28;20253;-79
2021/09/10 03:45:31;;;;;;;20.00;10.33;;;19.10;99.90;;;;;;5072826;28;20282;-79
2021/09/10 03:47:57;;;;;;;21.57;10.90;;;19.20;99.90;;;;;;5072723;28;20294;-79
2021/09/10 03:50:24;;;;;;;17.70;10.63;;;19.10;99.90;;;;;;5073080;28;20199;-79
2021/09/10 03:52:51;;;;;;;18.30;10.10;;;19.10;99.90;;;;;;5073133;28;20207;-80
2021/09/10 03:55:19;;;;;;;22.23;11.20;;;19.10;99.90;;;;;;5072512;28;20295;-79
2021/09/10 03:57:46;;;;;;;14.13;10.03;;;19.10;99.90;;;;;;5073470;28;20203;-79
2021/09/10 04:00:15;;;;;;;18.03;9.77;;;19.00;99.90;;;;;;5072638;28;20318;-79
2021/09/10 04:02:43;;;;;;;18.83;10.30;;;18.90;99.90;;;;;;5073033;28;20199;-79
2021/09/10 04:05:11;;;;;;;20.83;10.87;;;18.90;99.90;;;;;;5072385;28;20206;-80
2021/09/10 04:07:37;;;;;;;18.50;10.70;;;18.80;99.90;;;;;;5073162;28;20287;-79
2021/09/10 04:10:06;;;;;;;19.97;10.37;;;18.80;99.90;;;;;;5072763;28;20231;-79
2021/09/10 04:12:32;;;;;;;21.00;11.20;;;18.90;99.90;;;;;;5072898;28;20288;-79
2021/09/10 04:14:59;;;;;;;25.30;11.27;;;18.80;99.90;;;;;;5073694;28;20547;-79
2021/09/10 04:17:28;;;;;;;22.93;11.30;;;18.80;99.90;;;;;;5076954;28;20295;-79
2021/09/10 04:19:54;;;;;;;18.43;11.60;;;18.80;99.90;;;;;;5076749;28;20262;-79
2021/09/10 04:22:21;;;;;;;19.43;11.57;;;18.80;99.90;;;;;;5076998;28;20291;-79
2021/09/10 04:24:48;;;;;;;22.87;11.60;;;18.80;99.90;;;;;;5076579;28;20199;-79
2021/09/10 04:27:15;;;;;;;27.33;11.93;;;18.80;99.90;;;;;;5076758;28;20293;-79
2021/09/10 04:29:42;;;;;;;26.70;12.27;;;18.90;99.90;;;;;;5076509;28;20227;-79
2021/09/10 04:32:09;;;;;;;25.03;11.97;;;18.90;99.90;;;;;;5076836;28;20290;-80
2021/09/10 04:34:37;;;;;;;25.13;11.13;;;18.90;99.90;;;;;;5076376;28;20234;-79
2021/09/10 04:37:06;;;;;;;21.87;11.70;;;18.90;99.90;;;;;;5082103;28;20290;-79
2021/09/10 04:39:33;;;;;;;25.63;11.23;;;18.80;99.90;;;;;;5082586;28;20211;-79
2021/09/10 04:42:00;;;;;;;27.23;11.73;;;18.70;99.90;;;;;;5076592;28;20211;-79
2021/09/10 04:44:27;;;;;;;18.60;10.97;;;18.70;99.90;;;;;;5075787;28;20235;-79
2021/09/10 04:46:53;;;;;;;22.73;12.70;;;18.80;99.90;;;;;;5076577;28;20215;-79
2021/09/10 04:49:20;;;;;;;25.73;11.57;;;18.80;99.90;;;;;;5076139;28;20567;-79
2021/09/10 04:51:48;;;;;;;25.40;12.40;;;18.90;99.90;;;;;;5076251;28;20290;-79
2021/09/10 04:54:16;;;;;;;27.47;11.77;;;19.00;99.90;;;;;;5075861;28;20221;-79
2021/09/10 04:56:43;;;;;;;22.30;11.43;;;19.00;99.90;;;;;;5075825;28;20207;-79
2021/09/10 04:59:10;;;;;;;22.47;11.03;;;18.90;99.90;;;;;;5074616;28;20306;-79
2021/09/10 05:01:36;;;;;;;22.13;10.27;;;18.90;99.90;;;;;;5062162;28;20674;-79
2021/09/10 05:04:04;;;;;;;15.30;9.17;;;18.90;99.90;;;;;;5063921;28;20208;-79
2021/09/10 05:06:30;;;;;;;15.57;10.10;;;18.90;99.90;;;;;;5065835;28;20657;-79
2021/09/10 05:08:59;;;;;;;15.90;9.63;;;19.00;99.90;;;;;;5068036;28;20212;-79
2021/09/10 05:11:26;;;;;;;17.13;9.03;;;19.00;99.90;;;;;;5067054;28;20563;-79
2021/09/10 05:13:52;;;;;;;21.37;9.60;;;19.10;99.90;;;;;;5068508;28;20214;-79
2021/09/10 05:16:19;;;;;;;16.07;9.10;;;19.10;99.90;;;;;;5062428;28;20223;-79
2021/09/10 05:18:46;;;;;;;15.43;8.47;;;19.10;99.90;;;;;;5061472;28;20218;-79
2021/09/10 05:21:13;;;;;;;14.90;8.67;;;19.10;99.90;;;;;;5070534;28;20263;-79
2021/09/10 05:23:40;;;;;;;17.03;8.70;;;19.10;99.90;;;;;;5066979;28;20196;-78
2021/09/10 05:26:08;;;;;;;20.20;9.03;;;19.10;99.90;;;;;;5067906;28;20295;-79
2021/09/10 05:28:35;;;;;;;19.23;9.33;;;19.20;99.90;;;;;;5072373;28;20227;-79
2021/09/10 05:31:02;;;;;;;16.50;9.27;;;19.30;99.90;;;;;;5073499;28;20552;-80
2021/09/10 05:33:29;;;;;;;17.63;9.47;;;19.20;99.90;;;;;;5071919;28;20221;-79
2021/09/10 05:35:56;;;;;;;18.43;9.33;;;19.30;99.90;;;;;;5069194;28;20630;-79
2021/09/10 05:38:23;;;;;;;19.33;9.30;;;19.30;99.90;;;;;;5073302;28;20211;-79
2021/09/10 05:40:50;;;;;;;20.53;9.10;;;19.30;99.90;;;;;;5072816;28;20718;-78
2021/09/10 05:43:18;;;;;;;17.17;8.73;;;19.40;99.90;;;;;;5071282;28;20298;-79
2021/09/10 05:45:46;;;;;;;16.77;8.93;;;19.40;99.90;;;;;;5068338;28;20288;-79
2021/09/10 05:48:18;;;;;;;16.43;8.77;;;19.30;99.90;;;;;;5068170;28;20670;-79
2021/09/10 05:50:46;;;;;;;20.03;9.17;;;19.30;99.90;;;;;;5063266;28;20192;-79
2021/09/10 05:53:13;;;;;;;15.37;8.60;;;19.30;99.90;;;;;;5066772;28;20199;-80
2021/09/10 05:55:41;;;;;;;19.90;8.87;;;19.40;99.90;;;;;;5067931;28;20203;-79
2021/09/10 05:58:08;;;;;;;16.90;8.63;;;19.50;99.90;;;;;;5074457;28;20291;-80
2021/09/10 06:00:38;;;;;;;18.80;9.07;;;19.60;99.90;;;;;;5073471;28;20228;-80
2021/09/10 06:03:05;;;;;;;13.47;7.90;;;19.60;99.90;;;;;;5074686;28;20286;-79
2021/09/10 06:05:33;;;;;;;18.77;8.57;;;19.60;99.90;;;;;;5071033;28;20283;-79
2021/09/10 06:08:01;;;;;;;19.83;8.60;;;19.60;99.90;;;;;;5074482;28;20282;-79
2021/09/10 06:10:29;;;;;;;17.67;8.73;;;19.70;99.90;;;;;;5074819;28;20199;-79
2021/09/10 06:12:56;;;;;;;15.47;9.33;;;19.70;99.90;;;;;;5071048;28;20669;-78
2021/09/10 06:15:23;;;;;;;21.60;9.30;;;19.80;99.90;;;;;;5072886;28;20283;-78
2021/09/10 06:17:52;;;;;;;19.70;9.07;;;19.90;99.90;;;;;;5073201;28;20303;-79
2021/09/10 06:20:19;;;;;;;18.20;9.30;;;19.90;99.90;;;;;;5073126;28;20230;-78
2021/09/10 06:22:46;;;;;;;19.60;10.20;;;20.00;99.90;;;;;;5073964;28;20294;-79
2021/09/10 06:25:13;;;;;;;16.70;9.30;;;19.90;99.90;;;;;;5073308;28;20823;-78
2021/09/10 06:27:42;;;;;;;19.70;9.63;;;20.10;99.90;;;;;;5073591;28;20245;-79
2021/09/10 06:30:10;;;;;;;14.50;9.50;;;20.30;99.90;;;;;;5073128;28;20278;-79
2021/09/10 06:32:37;;;;;;;14.63;10.37;;;20.30;99.90;;;;;;5073729;28;20752;-79
2021/09/10 06:35:07;;;;;;;17.53;9.83;;;20.40;99.90;;;;;;5074023;28;20281;-79
2021/09/10 06:37:34;;;;;;;14.07;9.13;;;20.40;99.90;;;;;;5072839;28;20282;-78
2021/09/10 06:40:02;;;;;;;21.63;9.80;;;20.40;99.90;;;;;;5073653;28;20219;-79
2021/09/10 06:42:29;;;;;;;19.10;9.37;;;20.60;99.90;;;;;;5073405;28;20756;-79
2021/09/10 06:44:56;;;;;;;14.03;9.40;;;20.70;99.90;;;;;;5073545;28;20290;-78
2021/09/10 06:47:24;;;;;;;14.87;9.63;;;20.80;99.90;;;;;;5073323;28;20287;-78
2021/09/10 06:49:51;;;;;;;17.63;9.03;;;21.00;99.90;;;;;;5073962;28;20278;-79
2021/09/10 06:52:20;;;;;;;16.17;8.90;;;21.00;99.90;;;;;;5073555;28;20210;-78
2021/09/10 06:54:47;;;;;;;18.23;9.37;;;21.00;99.90;;;;;;5073416;28;20204;-79
2021/09/10 06:57:14;;;;;;;21.40;8.63;;;20.90;99.90;;;;;;5073385;28;20282;-78
2021/09/10 06:59:41;;;;;;;16.87;9.07;;;20.90;99.90;;;;;;5073348;28;20306;-78
2021/09/10 07:02:08;;;;;;;11.47;7.77;;;20.90;99.90;;;;;;5072819;28;20282;-78
2021/09/10 07:04:36;;;;;;;11.10;7.80;;;21.00;99.90;;;;;;5072602;28;20279;-79
2021/09/10 07:07:04;;;;;;;14.23;8.40;;;21.10;99.90;;;;;;5072405;28;20199;-78
2021/09/10 07:09:34;;;;;;;13.60;8.27;;;21.20;99.90;;;;;;5072909;28;20285;-78
2021/09/10 07:12:03;;;;;;;15.83;8.67;;;21.30;99.90;;;;;;5072777;28;20206;-79
2021/09/10 07:14:32;;;;;;;13.60;7.97;;;21.40;99.90;;;;;;5072554;28;20765;-79
2021/09/10 07:16:59;;;;;;;14.77;7.90;;;21.50;99.90;;;;;;5072206;28;20223;-79
2021/09/10 07:19:27;;;;;;;15.37;8.90;;;21.50;99.90;;;;;;5072676;28;20241;-79
2021/09/10 07:21:54;;;;;;;13.37;7.77;;;21.60;99.90;;;;;;5071871;28;20235;-79
2021/09/10 07:24:22;;;;;;;11.07;8.15;;;21.70;99.90;;;;;;5071812;28;20295;-79
2021/09/10 07:26:52;;;;;;;14.57;7.88;;;21.80;99.90;;;;;;5072029;28;20279;-79
2021/09/10 07:29:20;;;;;;;15.50;7.80;;;21.80;99.90;;;;;;5072341;28;20572;-79
2021/09/10 07:31:48;;;;;;;13.73;7.93;;;21.80;99.90;;;;;;5071875;28;20307;-79
2021/09/10 07:34:15;;;;;;;11.70;7.70;;;21.80;99.90;;;;;;5071709;28;20196;-79
2021/09/10 07:36:48;;;;;;;15.88;7.72;;;22.00;99.90;;;;;;5075224;28;20200;-79
2021/09/10 07:39:16;;;;;;;11.55;7.60;;;22.10;99.90;;;;;;5081102;28;20207;-79
2021/09/10 07:41:43;;;;;;;11.60;7.35;;;22.30;99.90;;;;;;5069007;28;20216;-79
2021/09/10 07:44:13;;;;;;;15.27;7.40;;;22.40;99.90;;;;;;5070644;28;20226;-79
2021/09/10 07:46:41;;;;;;;13.70;7.60;;;22.40;99.90;;;;;;5070685;28;20200;-79
2021/09/10 07:49:08;;;;;;;13.93;7.55;;;22.50;99.90;;;;;;5078777;28;20201;-79
2021/09/10 07:51:36;;;;;;;14.68;7.40;;;22.50;99.90;;;;;;5081394;28;20295;-79
2021/09/10 07:54:04;;;;;;;10.73;7.47;;;22.60;99.90;;;;;;5076552;28;20841;-79
2021/09/10 07:56:31;;;;;;;9.60;7.15;;;22.70;99.90;;;;;;5078340;28;20234;-78
2021/09/10 07:58:59;;;;;;;13.95;7.50;;;22.90;99.90;;;;;;5082818;28;20265;-79
2021/09/10 08:01:27;;;;;;;14.80;8.05;;;23.00;99.90;;;;;;5081001;28;20258;-79
2021/09/10 08:03:55;;;;;;;14.25;7.72;;;23.10;99.90;;;;;;5080987;28;20286;-79
2021/09/10 08:06:22;;;;;;;18.08;8.65;;;23.20;99.90;;;;;;5081288;28;20287;-78
2021/09/10 08:08:49;;;;;;;15.52;8.55;;;23.20;99.90;;;;;;5081758;28;20223;-79
2021/09/10 08:11:16;;;;;;;10.85;8.20;;;23.30;99.90;;;;;;5070285;28;20286;-79
2021/09/10 08:13:44;;;;;;;17.30;8.80;;;23.30;99.90;;;;;;5078278;28;20699;-79
2021/09/10 08:16:11;;;;;;;13.38;8.10;;;23.40;99.90;;;;;;5081719;28;20614;-79
2021/09/10 08:18:39;;;;;;;18.23;8.88;;;23.40;99.90;;;;;;5079432;28;20302;-79
2021/09/10 08:21:06;;;;;;;16.15;9.15;;;23.50;99.90;;;;;;5081312;28;20293;-79
2021/09/10 08:23:33;;;;;;;13.55;8.30;;;23.60;99.90;;;;;;5076379;28;20219;-79
2021/09/10 08:26:00;;;;;;;18.10;8.70;;;23.50;99.90;;;;;;5080245;28;20683;-79
2021/09/10 08:28:27;;;;;;;15.75;8.48;;;23.40;99.90;;;;;;5079482;28;20226;-79
2021/09/10 08:30:53;;;;;;;13.35;8.30;;;23.30;99.90;;;;;;5080866;28;20282;-79
2021/09/10 08:33:20;;;;;;;13.45;8.40;;;23.30;99.90;;;;;;5080739;28;20207;-79
2021/09/10 08:35:48;;;;;;;14.90;9.30;;;23.30;99.90;;;;;;5082285;28;20237;-79
2021/09/10 08:38:15;;;;;;;21.17;9.07;;;23.10;99.90;;;;;;5081813;28;20282;-79
2021/09/10 08:40:45;;;;;;;14.77;8.25;;;23.00;99.90;;;;;;5076601;28;20697;-79
2021/09/10 08:43:12;;;;;;;18.50;9.32;;;22.80;99.90;;;;;;5061308;28;20232;-79
2021/09/10 08:45:39;;;;;;;17.17;9.45;;;23.00;99.90;;;;;;5060725;28;20199;-79
2021/09/10 08:48:06;;;;;;;16.52;9.57;;;22.80;99.90;;;;;;5061323;28;20275;-78
2021/09/10 08:50:33;;;;;;;17.80;10.35;;;22.90;99.90;;;;;;5061359;28;20279;-80
2021/09/10 08:53:02;;;;;;;18.40;10.27;;;23.00;99.90;;;;;;5068335;28;20638;-79
2021/09/10 08:55:28;;;;;;;14.93;9.48;;;23.00;99.90;;;;;;5061107;28;20199;-80
2021/09/10 08:57:55;;;;;;;16.92;10.27;;;22.80;99.90;;;;;;5062733;28;20295;-79
2021/09/10 09:00:28;;;;;;;19.45;10.60;;;22.80;99.90;;;;;;5063097;28;20764;-79
2021/09/10 09:03:02;;;;;;;19.80;11.23;;;22.90;99.90;;;;;;5064620;28;20189;-79
2021/09/10 09:05:33;;;;;;;15.73;10.05;;;23.00;99.90;;;;;;5064011;28;20238;-80
2021/09/10 09:08:12;;;;;;;18.98;10.60;;;23.00;99.90;;;;;;5064474;28;20245;-79
2021/09/10 09:10:55;;;;;;;16.80;10.20;;;23.00;99.90;;;;;;5069963;28;20238;-79
2021/09/10 09:13:23;;;;;;;18.38;11.27;;;23.10;99.90;;;;;;5064811;28;20245;-80
2021/09/10 09:15:50;;;;;;;15.50;10.98;;;23.20;99.90;;;;;;5072727;28;20303;-79
2021/09/10 09:18:17;;;;;;;17.65;11.00;;;23.10;99.90;;;;;;5073505;28;20202;-80
2021/09/10 09:20:48;;;;;;;17.67;10.63;;;23.10;99.90;;;;;;5071927;28;20219;-81
2021/09/10 09:23:17;;;;;;;18.40;11.25;;;23.00;99.90;;;;;;5073924;28;20207;-79
2021/09/10 09:25:45;;;;;;;17.88;10.63;;;23.00;99.90;;;;;;5063054;28;20290;-79
2021/09/10 09:28:20;;;;;;;24.85;12.25;;;23.10;99.90;;;;;;5067013;28;20286;-79
2021/09/10 09:30:49;;;;;;;22.52;11.38;;;23.10;99.90;;;;;;5070354;28;20198;-79
2021/09/10 09:33:17;;;;;;;25.00;12.95;;;23.10;99.90;;;;;;5063162;28;20204;-79
2021/09/10 09:35:45;;;;;;;24.92;13.30;;;23.10;99.90;;;;;;5067269;28;20204;-79
2021/09/10 09:38:17;;;;;;;24.58;13.65;;;23.00;99.90;;;;;;5070202;28;20736;-78
2021/09/10 09:40:45;;;;;;;21.20;12.90;;;22.80;99.90;;;;;;5066365;28;20216;-77
2021/09/10 09:43:16;;;;;;;22.60;13.88;;;22.70;99.90;;;;;;5069593;28;20195;-84
2021/09/10 09:45:46;;;;;;;25.83;13.85;;;22.50;99.90;;;;;;5070669;28;20272;-78
2021/09/10 09:48:14;;;;;;;22.13;13.95;;;22.30;99.90;;;;;;5066303;28;20583;-80
2021/09/10 09:50:43;;;;;;;23.73;14.52;;;22.20;99.90;;;;;;5074309;28;20211;-82
2021/09/10 09:53:12;;;;;;;26.77;14.95;;;22.10;99.90;;;;;;5072823;28;20744;-82
2021/09/10 09:55:41;;;;;;;22.33;14.45;;;22.00;99.90;;;;;;5072484;28;20206;-79
2021/09/10 09:58:09;;;;;;;25.20;14.23;;;21.90;99.90;;;;;;5073202;28;20195;-79
2021/09/10 10:00:39;;;;;;;22.15;13.95;;;21.70;99.90;;;;;;5073518;28;20219;-79
2021/09/10 10:03:07;;;;;;;26.10;15.02;;;21.50;99.90;;;;;;5074812;28;20291;-79
2021/09/10 10:05:43;;;;;;;26.83;15.57;;;21.50;99.90;;;;;;5073785;28;20574;-79
2021/09/10 10:08:14;;;;;;;26.63;15.98;;;21.50;99.90;;;;;;5073183;28;20268;-79
2021/09/10 10:10:48;;;;;;;23.60;17.00;;;21.40;99.90;;;;;;5066016;28;20228;-78
2021/09/10 10:13:22;;;;;;;27.73;16.33;;;21.20;99.90;;;;;;5068840;28;20235;-78
2021/09/10 10:15:49;;;;;;;30.27;18.13;;;21.20;99.90;;;;;;5068762;28;20624;-79
2021/09/10 10:18:41;;;;;;;30.48;18.05;;;21.10;99.90;;;;;;5074209;28;20647;-79
2021/09/10 10:21:10;;;;;;;33.20;18.40;;;21.00;99.90;;;;;;5069802;28;20211;-79
2021/09/10 10:23:59;;;;;;;31.47;17.63;;;20.90;99.90;;;;;;5066242;28;20630;-79
2021/09/10 10:26:41;;;;;;;33.03;18.80;;;20.90;99.90;;;;;;5073261;28;20249;-79
2021/09/10 10:29:14;;;;;;;38.10;18.57;;;20.80;99.90;;;;;;5073202;28;20203;-79
2021/09/10 10:32:04;;;;;;;30.67;18.27;;;20.70;99.90;;;;;;5072823;28;20199;-79
2021/09/10 10:34:33;;;;;;;32.97;19.07;;;20.70;99.90;;;;;;5071442;28;20716;-79
2021/09/10 10:37:00;;;;;;;30.57;17.77;;;20.70;99.90;;;;;;5074217;28;20199;-80
2021/09/10 10:39:30;;;;;;;33.40;19.23;;;20.60;99.90;;;;;;5071601;28;20203;-78
2021/09/10 10:42:01;;;;;;;33.23;19.63;;;20.60;99.90;;;;;;5071345;28;20223;-79
2021/09/10 10:44:58;;;;;;;34.23;19.23;;;20.70;99.90;;;;;;5070809;28;20231;-78
2021/09/10 10:47:33;;;;;;;36.43;18.77;;;20.60;99.90;;;;;;5061487;28;20209;-78
2021/09/10 10:50:02;;;;;;;33.60;20.43;;;20.60;99.90;;;;;;5071338;28;20221;-78
2021/09/10 10:52:34;;;;;;;34.13;19.07;;;20.50;99.90;;;;;;5073931;28;20195;-78
2021/09/10 10:55:23;;;;;;;35.57;19.53;;;20.60;99.90;;;;;;5073156;28;20203;-77
2021/09/10 10:57:53;;;;;;;32.07;19.13;;;20.70;99.90;;;;;;5072581;28;20592;-77
2021/09/10 11:00:48;;;;;;;34.17;19.13;;;20.80;99.90;;;;;;5073299;28;20629;-78
2021/09/10 11:03:34;;;;;;;34.70;19.00;;;20.80;99.90;;;;;;5073396;28;20200;-78
2021/09/10 11:06:27;;;;;;;32.17;17.30;;;20.80;99.90;;;;;;5073175;28;20205;-78
2021/09/10 11:08:54;;;;;;;29.33;17.97;;;20.80;99.90;;;;;;5072972;28;20210;-77
2021/09/10 11:11:21;;;;;;;26.50;17.83;;;20.80;99.90;;;;;;5072430;28;20209;-77
2021/09/10 11:13:49;;;;;;;32.80;18.40;;;20.90;99.90;;;;;;5069304;28;20209;-77
2021/09/10 11:16:30;;;;;;;33.83;18.40;;;20.90;99.90;;;;;;5065118;28;20204;-77
2021/09/10 11:18:58;;;;;;;36.20;19.20;;;21.00;99.90;;;;;;5069303;28;20213;-77
2021/09/10 11:21:29;;;;;;;34.93;20.40;;;21.20;99.90;;;;;;5064899;28;20212;-77
2021/09/10 11:23:57;;;;;;;34.57;20.17;;;21.30;99.90;;;;;;5068746;28;20234;-77
2021/09/10 11:26:34;;;;;;;39.07;20.90;;;21.30;99.90;;;;;;5065010;28;20207;-78
2021/09/10 11:29:10;;;;;;;40.38;21.83;;;21.50;99.90;;;;;;5068781;28;20199;-77
2021/09/10 11:31:37;;;;;;;39.58;22.23;;;21.70;99.90;;;;;;5065501;28;20202;-77
2021/09/10 11:34:04;;;;;;;44.40;22.95;;;22.10;99.90;;;;;;5068723;28;20214;-78
2021/09/10 11:36:30;;;;;;;35.80;21.58;;;22.40;99.90;;;;;;5071953;28;20241;-77
2021/09/10 11:39:05;;;;;;;41.97;23.65;;;22.70;99.90;;;;;;5069141;28;20674;-77
2021/09/10 11:41:33;;;;;;;38.75;23.83;;;23.00;99.90;;;;;;5058369;28;20567;-78
2021/09/10 11:44:10;;;;;;;39.42;22.80;;;23.30;99.90;;;;;;5058548;28;20203;-78
2021/09/10 11:46:37;;;;;;;33.63;20.63;;;23.30;99.90;;;;;;5067067;28;20206;-78
2021/09/10 11:49:04;;;;;;;33.20;19.98;;;23.40;99.90;;;;;;5060499;28;20656;-78
2021/09/10 11:51:40;;;;;;;32.53;19.20;;;23.50;99.90;;;;;;5060042;28;20210;-78
2021/09/10 11:54:12;;;;;;;30.40;19.45;;;23.50;99.90;;;;;;5059206;28;20284;-78
2021/09/10 11:56:39;;;;;;;28.00;18.63;;;23.70;99.90;;;;;;5061452;28;20203;-78
2021/09/10 11:59:18;;;;;;;25.42;17.10;;;24.20;99.90;;;;;;5065705;28;20203;-78
2021/09/10 12:01:46;;;;;;;30.80;17.85;;;24.40;99.90;;;;;;5062603;28;20716;-78
2021/09/10 12:04:27;;;;;;;29.83;17.98;;;24.90;99.90;;;;;;5052801;28;20196;-78
2021/09/10 12:06:57;;;;;;;27.45;17.15;;;25.30;99.90;;;;;;5070360;28;20227;-79
2021/09/10 12:09:26;;;;;;;27.00;17.10;;;25.80;99.90;;;;;;5068821;28;20276;-78
2021/09/10 12:12:07;;;;;;;27.02;17.15;;;26.20;99.90;;;;;;5070483;28;20724;-79
2021/09/10 12:14:41;;;;;;;23.20;16.15;;;26.60;99.90;;;;;;5068878;28;20301;-78
2021/09/10 12:17:14;;;;;;;19.27;14.05;;;27.10;99.90;;;;;;5070791;28;20214;-78
2021/09/10 12:19:58;;;;;;;23.35;14.05;;;27.70;99.90;;;;;;5068736;28;20203;-79
2021/09/10 12:22:30;;;;;;;19.42;12.38;;;27.70;99.90;;;;;;5071038;28;20254;-79
2021/09/10 12:25:20;;;;;;;15.70;11.35;;;27.70;99.90;;;;;;5069354;28;20203;-78
2021/09/10 12:27:48;;;;;;;23.05;11.77;;;27.20;99.90;;;;;;5067562;28;20591;-78
2021/09/10 12:30:18;;;;;;;16.30;11.07;;;26.90;99.90;;;;;;5065171;28;20195;-79
2021/09/10 12:32:45;;;;;;;14.52;9.90;;;26.70;99.90;;;;;;5067924;28;20203;-79
2021/09/10 12:35:12;;;;;;;13.23;9.25;;;26.80;99.90;;;;;;5066795;28;20231;-78
2021/09/10 12:37:39;;;;;;;13.02;8.77;;;27.20;99.90;;;;;;5075261;28;20206;-79
2021/09/10 12:40:07;;;;;;;12.60;8.82;;;27.40;99.90;;;;;;5074126;28;20196;-78